Airfield :
LOGIN :

Register | Disclaimer

   EN    FR    IT 

 










Legend :    VFR   Marginal VFR   IFR   Intensive IFR   Very Intensive IFR
Visi :
Ceiling :
>= 8 km
>= 3000ft
5 to 8 km
1000 to 3000 ft
1500m to 5 km
500 to 1000 ft
800 to 1500m
200 to 500 ft
< 800m
< 200 ft
Symbols :   Thunderstorms  Fog  Heavy snow  Heavy precipitations  Wind > 20 kt
SIGMETs :     Misc.  Thunderstorms  Icing  Turbulence  Mountain Waves  Volcanic Ashes







- Airport Elevation : 56 ft
- IATA code : ILY
- Download approach charts


EGPI - Islay

CURRENT METAR :
  • 261250Z 23005KT 200V270 CAVOK 13/04 Q1027

EXPIRED METARs :
  • 261220Z 22008KT CAVOK 14/03 Q1027
  • 261150Z AUTO 21004KT 150V240 9999 NCD 15/03 Q1027
  • 261120Z AUTO 14006KT 100V190 9999 NCD 15/01 Q1027
  • 261050Z AUTO VRB05KT 9999 NCD 14/01 Q1027
  • 261020Z AUTO 31003KT 9999 NCD 12/04 Q1027
  • 260950Z AUTO 12002KT 9999 NCD 11/04 Q1028

TAF TAF EGPI
Valid from the 26 at 12:00 until the 26 at 18:00 UTC


261057Z 2612/2618 12006KT CAVOK
No reported NOTAMs for that airfield.



MET'MAP, your aeronautical weather chart ! - Copyright ORBIFLY December 2007 - Disclaimer

ORBIFLY MET'MAP TEAM :

Programming & Development : Alexandra Zaïnal
Concept & Development : Baudouin d'Aumeries
Co-Development & Prog : Marc-Olivier Méhu
Technical & hardware support : Manuel Goepfert

Contact : metmap@orbifly.com




SOURCES & CREDITS :

   NOAA